createdAt,value
2019-04-07T00:01:55.291Z,99265.17
2019-04-07T00:05:10.312Z,99273.16
2019-04-07T00:08:05.671Z,99277.14
2019-04-07T00:11:09.422Z,99272.81
2019-04-07T00:14:12.920Z,99273.81
2019-04-07T00:17:17.910Z,99271.29
2019-04-07T00:20:22.056Z,99273.44
2019-04-07T00:23:25.665Z,99271.43
2019-04-07T00:26:29.220Z,99276.75
2019-04-07T00:29:32.659Z,99280.23
2019-04-07T00:32:37.209Z,99279.55
2019-04-07T00:35:40.685Z,99280.38
2019-04-07T00:38:44.198Z,99286.34
2019-04-07T00:41:48.721Z,99285.63
2019-04-07T00:44:52.220Z,99287.81
2019-04-07T00:47:55.950Z,99290.34
2019-04-07T00:51:00.245Z,99290.14
2019-04-07T00:54:03.983Z,99287.67
2019-04-07T00:57:07.464Z,99288.95
2019-04-07T01:00:12.435Z,99294.94
2019-04-07T01:03:15.903Z,99293.61
2019-04-07T01:06:19.356Z,99291.61
2019-04-07T01:09:23.331Z,99297.06
2019-04-07T01:12:27.038Z,99289.91
2019-04-07T01:15:30.588Z,99298.73
2019-04-07T01:18:34.025Z,99295.23
2019-04-07T01:21:39.047Z,99297.20
2019-04-07T01:24:43.152Z,99294.03
2019-04-07T01:27:47.817Z,99303.15
2019-04-07T01:30:52.341Z,99298.17
2019-04-07T01:33:56.405Z,99307.65
2019-04-07T01:37:01.020Z,99307.47
2019-04-07T01:40:05.730Z,99302.81
2019-04-07T01:43:17.498Z,99311.64
2019-04-07T01:46:28.624Z,99309.80
2019-04-07T01:50:02.181Z,99308.13
2019-04-07T01:53:24.592Z,99309.12
2019-04-07T01:56:47.197Z,99310.08
2019-04-07T02:00:08.426Z,99318.05
2019-04-07T02:03:29.963Z,99311.06
2019-04-07T02:06:58.758Z,99310.73
2019-04-07T02:10:16.245Z,99309.25
2019-04-07T02:13:28.712Z,99309.54
2019-04-07T02:16:57.847Z,99311.34
2019-04-07T02:20:17.681Z,99307.70
2019-04-07T02:23:37.171Z,99319.32
2019-04-07T02:26:45.714Z,99317.99
2019-04-07T02:30:14.544Z,99316.60
2019-04-07T02:33:24.880Z,99309.67
2019-04-07T02:36:47.423Z,99317.66
2019-04-07T02:40:10.272Z,99315.61
2019-04-07T02:43:24.052Z,99314.28
2019-04-07T02:46:46.291Z,99317.31
2019-04-07T02:50:17.749Z,99315.61
2019-04-07T02:53:33.025Z,99316.13
2019-04-07T02:56:49.590Z,99315.27
2019-04-07T02:59:59.657Z,99321.92
2019-04-07T03:03:21.437Z,99322.91
2019-04-07T03:06:51.875Z,99332.22
2019-04-07T03:09:58.494Z,99333.17
2019-04-07T03:13:19.704Z,99332.36
2019-04-07T03:16:42.355Z,99328.51
2019-04-07T03:19:52.175Z,99329.84
2019-04-07T03:23:26.589Z,99330.83
2019-04-07T03:26:51.395Z,99331.30
2019-04-07T03:30:03.554Z,99332.16
2019-04-07T03:33:22.679Z,99328.51
2019-04-07T03:37:12.858Z,99327.11
2019-04-07T03:40:02.467Z,99320.47
2019-04-07T03:43:15.417Z,99325.78
2019-04-07T03:46:28.513Z,99322.75
2019-04-07T03:49:49.675Z,99321.42
2019-04-07T03:53:00.102Z,99324.45
2019-04-07T03:56:12.196Z,99318.42
2019-04-07T03:59:35.317Z,99318.91
2019-04-07T04:02:57.048Z,99319.89
2019-04-07T04:06:10.593Z,99322.41
2019-04-07T04:09:22.248Z,99325.21
2019-04-07T04:12:34.223Z,99328.72
2019-04-07T04:15:48.224Z,99328.01
2019-04-07T04:18:52.585Z,99329.34
2019-04-07T04:21:56.286Z,99332.00
2019-04-07T04:25:00.879Z,99328.01
2019-04-07T04:28:05.557Z,99321.36
2019-04-07T04:31:09.457Z,99320.69
2019-04-07T04:34:14.001Z,99322.02
2019-04-07T04:37:33.281Z,99322.97
2019-04-07T04:40:24.254Z,99321.64
2019-04-07T04:43:27.980Z,99333.60
2019-04-07T04:46:34.465Z,99335.30
2019-04-07T04:49:39.067Z,99331.08
2019-04-07T04:52:42.864Z,99334.93
2019-04-07T04:55:47.196Z,99337.59
2019-04-07T04:58:50.851Z,99341.23
2019-04-07T05:01:54.285Z,99344.51
2019-04-07T05:04:57.812Z,99348.88
2019-04-07T05:08:04.051Z,99340.18
2019-04-07T05:11:06.873Z,99345.50
2019-04-07T05:14:10.545Z,99346.83
2019-04-07T05:17:15.272Z,99352.01
2019-04-07T05:20:19.005Z,99355.66
2019-04-07T05:23:23.109Z,99357.80
2019-04-07T05:26:26.591Z,99360.63
2019-04-07T05:29:31.242Z,99364.10
2019-04-07T05:32:34.986Z,99361.95
2019-04-07T05:35:38.529Z,99371.09
2019-04-07T05:38:42.146Z,99374.39
2019-04-07T05:41:45.826Z,99381.04
2019-04-07T05:44:49.452Z,99389.02
2019-04-07T05:47:53.481Z,99388.67
2019-04-07T05:51:00.507Z,99391.67
2019-04-07T05:54:02.718Z,99390.95
2019-04-07T05:57:06.319Z,99388.80
2019-04-07T06:00:13.633Z,99386.02
2019-04-07T06:03:16.501Z,99387.34
2019-04-07T06:06:20.893Z,99382.16
2019-04-07T06:09:26.417Z,99384.31
2019-04-07T06:12:29.973Z,99382.98
2019-04-07T06:15:35.950Z,99390.95
2019-04-07T06:18:39.515Z,99381.31
2019-04-07T06:21:46.045Z,99384.95
2019-04-07T06:24:48.780Z,99390.95
2019-04-07T06:27:53.414Z,99386.63
2019-04-07T06:31:00.235Z,99386.63
2019-04-07T06:34:03.303Z,99390.61
2019-04-07T06:37:06.892Z,99385.77
2019-04-07T06:40:12.251Z,99384.82
2019-04-07T06:43:17.050Z,99380.46
2019-04-07T06:46:39.046Z,99382.44
2019-04-07T06:50:05.627Z,99379.78
2019-04-07T06:53:20.662Z,99384.95
2019-04-07T06:56:42.506Z,99382.44
2019-04-07T07:00:23.622Z,99383.25
2019-04-07T07:03:39.172Z,99380.59
2019-04-07T07:07:06.249Z,99388.70
2019-04-07T07:10:30.425Z,99379.78
2019-04-07T07:13:55.020Z,99383.77
2019-04-07T07:17:14.931Z,99386.90
2019-04-07T07:20:27.621Z,99383.05
2019-04-07T07:23:33.258Z,99391.53
2019-04-07T07:26:36.806Z,99388.88
2019-04-07T07:29:40.935Z,99389.22
2019-04-07T07:32:44.663Z,99393.20
2019-04-07T07:35:49.192Z,99390.55
2019-04-07T07:38:59.843Z,99397.66
2019-04-07T07:41:58.476Z,99395.01
2019-04-07T07:45:02.646Z,99395.21
2019-04-07T07:48:07.421Z,99397.19
2019-04-07T07:51:13.282Z,99391.53
2019-04-07T07:54:17.319Z,99395.52
2019-04-07T07:57:23.430Z,99391.53
2019-04-07T08:00:26.603Z,99399.84
2019-04-07T08:03:30.405Z,99394.02
2019-04-07T08:06:34.599Z,99391.53
2019-04-07T08:09:39.341Z,99394.88
2019-04-07T08:12:43.709Z,99387.89
2019-04-07T08:15:47.471Z,99385.70
2019-04-07T08:18:51.085Z,99390.03
2019-04-07T08:21:54.676Z,99393.55
2019-04-07T08:24:58.823Z,99385.57
2019-04-07T08:28:04.570Z,99390.55
2019-04-07T08:31:07.818Z,99385.91
2019-04-07T08:34:12.096Z,99390.41
2019-04-07T08:37:16.230Z,99386.97
2019-04-07T08:40:19.955Z,99384.11
2019-04-07T08:43:24.687Z,99393.85
2019-04-07T08:46:35.238Z,99389.92
2019-04-07T08:49:36.558Z,99387.00
2019-04-07T08:52:42.677Z,99387.67
2019-04-07T08:55:48.556Z,99388.73
2019-04-07T08:58:51.088Z,99389.44
2019-04-07T09:01:54.663Z,99390.84
2019-04-07T09:04:58.118Z,99387.19
2019-04-07T09:08:05.539Z,99382.58
2019-04-07T09:11:15.888Z,99382.31
2019-04-07T09:14:20.246Z,99379.51
2019-04-07T09:17:53.194Z,99381.52
2019-04-07T09:21:37.259Z,99382.70
2019-04-07T09:24:40.345Z,99381.44
2019-04-07T09:28:03.223Z,99382.30
2019-04-07T09:31:14.344Z,99378.50
2019-04-07T09:34:44.663Z,99381.88
2019-04-07T09:38:23.598Z,99378.94
2019-04-07T09:41:35.316Z,99380.60
2019-04-07T09:44:51.720Z,99371.52
2019-04-07T09:48:04.118Z,99376.22
2019-04-07T09:51:30.974Z,99377.27
2019-04-07T09:55:09.469Z,99375.30
2019-04-07T09:58:25.186Z,99377.81
2019-04-07T10:01:51.927Z,99373.20
2019-04-07T10:05:16.101Z,99378.23
2019-04-07T10:08:31.612Z,99368.64
2019-04-07T10:11:52.886Z,99370.17
2019-04-07T10:15:07.690Z,99369.66
2019-04-07T10:18:25.276Z,99372.97
2019-04-07T10:21:49.712Z,99374.30
2019-04-07T10:25:15.563Z,99361.67
2019-04-07T10:28:30.246Z,99364.70
2019-04-07T10:31:47.378Z,99364.00
2019-04-07T10:35:13.667Z,99362.86
2019-04-07T10:38:40.113Z,99365.05
2019-04-07T10:41:53.159Z,99361.39
2019-04-07T10:45:12.019Z,99365.10
2019-04-07T10:48:24.874Z,99362.30
2019-04-07T10:51:54.793Z,99357.45
2019-04-07T10:55:09.040Z,99354.45
2019-04-07T10:58:20.974Z,99353.83
2019-04-07T11:01:52.294Z,99346.52
2019-04-07T11:05:01.931Z,99346.23
2019-04-07T11:08:30.950Z,99338.63
2019-04-07T11:11:53.251Z,99346.09
2019-04-07T11:15:31.337Z,99336.06
2019-04-07T11:19:02.000Z,99335.41
2019-04-07T11:22:23.650Z,99333.11
2019-04-07T11:25:46.089Z,99334.63
2019-04-07T11:28:54.225Z,99337.16
2019-04-07T11:32:04.323Z,99331.48
2019-04-07T11:35:22.204Z,99327.17
2019-04-07T11:38:51.640Z,99324.52
2019-04-07T11:42:15.332Z,99327.55
2019-04-07T11:45:56.138Z,99333.55
2019-04-07T11:49:10.735Z,99332.58
2019-04-07T11:52:23.573Z,99329.21
2019-04-07T11:55:47.513Z,99329.84
2019-04-07T11:59:20.354Z,99328.03
2019-04-07T12:02:36.404Z,99331.54
2019-04-07T12:05:48.436Z,99332.73
2019-04-07T12:09:03.337Z,99327.55
2019-04-07T12:12:18.590Z,99329.84
2019-04-07T12:15:37.259Z,99326.50
2019-04-07T12:19:00.178Z,99325.66
2019-04-07T12:22:22.757Z,99324.17
2019-04-07T12:25:56.880Z,99323.50
2019-04-07T12:29:14.893Z,99320.47
2019-04-07T12:32:29.232Z,99317.48
2019-04-07T12:35:53.502Z,99315.80
2019-04-07T12:39:16.206Z,99308.86
2019-04-07T12:42:44.805Z,99308.49
2019-04-07T12:46:12.989Z,99303.54
2019-04-07T12:49:36.281Z,99301.73
2019-04-07T12:53:04.870Z,99296.97
2019-04-07T12:56:18.774Z,99287.17
2019-04-07T12:59:48.684Z,99283.66
2019-04-07T13:03:16.908Z,99287.17
2019-04-07T13:06:42.219Z,99293.98
2019-04-07T13:09:52.392Z,99290.17
2019-04-07T13:13:13.883Z,99289.17
2019-04-07T13:16:43.788Z,99281.00
2019-04-07T13:20:00.893Z,99279.70
2019-04-07T13:23:12.377Z,99278.42
2019-04-07T13:26:34.558Z,99272.83
2019-04-07T13:29:46.567Z,99273.68
2019-04-07T13:33:01.640Z,99268.36
2019-04-07T13:36:32.076Z,99272.50
2019-04-07T13:40:03.976Z,99268.17
2019-04-07T13:43:26.493Z,99262.44
2019-04-07T13:46:49.043Z,99265.77
2019-04-07T13:50:02.104Z,99269.77
2019-04-07T13:53:14.556Z,99265.06
2019-04-07T13:56:40.778Z,99261.77
2019-04-07T13:59:53.219Z,99257.11
2019-04-07T14:03:03.752Z,99260.30
2019-04-07T14:06:16.345Z,99255.19
2019-04-07T14:09:57.224Z,99260.08
2019-04-07T14:13:15.999Z,99262.26
2019-04-07T14:16:34.661Z,99257.45
2019-04-07T14:19:57.934Z,99249.64
2019-04-07T14:23:09.014Z,99249.64
2019-04-07T14:26:27.989Z,99253.67
2019-04-07T14:29:40.612Z,99256.34
2019-04-07T14:33:12.304Z,99262.08
2019-04-07T14:36:47.994Z,99262.11
2019-04-07T14:40:13.299Z,99263.63
2019-04-07T14:43:31.073Z,99256.19
2019-04-07T14:47:01.887Z,99258.03
2019-04-07T14:50:30.965Z,99260.55
2019-04-07T14:53:53.023Z,99258.88
2019-04-07T14:57:22.404Z,99259.85
2019-04-07T15:00:44.020Z,99256.85
2019-04-07T15:03:48.601Z,99258.19
2019-04-07T15:07:08.074Z,99262.22
2019-04-07T15:10:23.138Z,99263.25
2019-04-07T15:13:28.296Z,99263.06
2019-04-07T15:16:32.917Z,99257.73
2019-04-07T15:19:37.487Z,99265.44
2019-04-07T15:22:44.793Z,99270.77
2019-04-07T15:25:47.459Z,99266.47
2019-04-07T15:28:51.025Z,99270.98
2019-04-07T15:31:54.502Z,99265.65
2019-04-07T15:34:59.001Z,99266.38
2019-04-07T15:38:03.961Z,99268.31
2019-04-07T15:41:10.723Z,99266.65
2019-04-07T15:44:14.413Z,99263.28
2019-04-07T15:47:18.144Z,99268.61
2019-04-07T15:50:22.741Z,99265.77
2019-04-07T15:53:29.137Z,99268.91
2019-04-07T15:56:33.715Z,99272.91
2019-04-07T15:59:37.411Z,99277.42
2019-04-07T16:02:43.455Z,99274.42
2019-04-07T16:05:48.026Z,99278.91
2019-04-07T16:08:51.715Z,99276.72
2019-04-07T16:11:59.216Z,99277.23
2019-04-07T16:15:02.892Z,99290.56
2019-04-07T16:18:08.447Z,99290.20
2019-04-07T16:21:12.480Z,99290.89
2019-04-07T16:24:16.728Z,99291.38
2019-04-07T16:27:20.291Z,99287.89
2019-04-07T16:30:24.739Z,99287.20
2019-04-07T16:33:32.527Z,99293.16
2019-04-07T16:36:35.169Z,99293.30
2019-04-07T16:39:38.857Z,99288.83
2019-04-07T16:43:00.387Z,99299.67
2019-04-07T16:45:50.759Z,99295.19
2019-04-07T16:48:54.454Z,99292.52
2019-04-07T16:52:00.757Z,99294.19
2019-04-07T16:55:04.289Z,99297.52
2019-04-07T16:58:08.494Z,99290.45
2019-04-07T17:01:14.288Z,99291.45
2019-04-07T17:04:17.822Z,99299.59
2019-04-07T17:07:22.422Z,99298.41
2019-04-07T17:10:32.340Z,99291.89
2019-04-07T17:13:39.411Z,99300.55
2019-04-07T17:16:39.498Z,99302.99
2019-04-07T17:19:43.609Z,99307.14
2019-04-07T17:22:48.440Z,99306.98
2019-04-07T17:25:54.793Z,99302.99
2019-04-07T17:28:59.512Z,99302.99
2019-04-07T17:32:03.831Z,99311.69
2019-04-07T17:35:11.874Z,99306.55
2019-04-07T17:38:15.906Z,99306.06
2019-04-07T17:41:20.192Z,99310.39
2019-04-07T17:44:36.367Z,99315.05
2019-04-07T17:48:07.020Z,99316.58
2019-04-07T17:51:32.255Z,99318.73
2019-04-07T17:54:52.548Z,99318.39
2019-04-07T17:58:03.150Z,99321.05
2019-04-07T18:01:24.984Z,99321.05
2019-04-07T18:04:51.880Z,99329.05
2019-04-07T18:08:15.554Z,99329.90
2019-04-07T18:11:37.731Z,99328.05
2019-04-07T18:15:03.570Z,99334.71
2019-04-07T18:18:21.286Z,99333.38
2019-04-07T18:21:44.967Z,99337.74
2019-04-07T18:25:03.588Z,99340.41
2019-04-07T18:28:13.284Z,99344.88
2019-04-07T18:31:40.056Z,99348.40
2019-04-07T18:34:52.875Z,99354.06
2019-04-07T18:38:21.831Z,99356.02
2019-04-07T18:41:44.766Z,99362.39
2019-04-07T18:45:23.149Z,99360.72
2019-04-07T18:48:59.149Z,99367.05
2019-04-07T18:52:29.193Z,99367.05
2019-04-07T18:55:50.486Z,99371.38
2019-04-07T18:59:19.204Z,99378.04
2019-04-07T19:02:37.840Z,99377.05
2019-04-07T19:05:47.987Z,99389.03
2019-04-07T19:09:00.021Z,99388.07
2019-04-07T19:12:23.002Z,99390.03
2019-04-07T19:15:51.548Z,99388.22
2019-04-07T19:19:13.686Z,99389.03
2019-04-07T19:22:35.027Z,99395.41
2019-04-07T19:25:55.434Z,99395.06
2019-04-07T19:29:19.550Z,99404.05
2019-04-07T19:32:38.834Z,99396.06
2019-04-07T19:36:05.999Z,99399.06
2019-04-07T19:39:29.625Z,99401.73
2019-04-07T19:42:49.872Z,99400.39
2019-04-07T19:46:12.736Z,99399.69
2019-04-07T19:49:24.057Z,99397.98
2019-04-07T19:52:47.750Z,99400.59
2019-04-07T19:56:10.204Z,99403.18
2019-04-07T19:59:28.818Z,99399.98
2019-04-07T20:02:40.560Z,99402.45
2019-04-07T20:06:10.895Z,99405.75
2019-04-07T20:09:32.427Z,99401.42
2019-04-07T20:12:59.054Z,99399.52
2019-04-07T20:16:14.915Z,99406.70
2019-04-07T20:19:39.492Z,99402.65
2019-04-07T20:23:02.746Z,99398.77
2019-04-07T20:26:24.198Z,99396.88
2019-04-07T20:29:43.370Z,99393.88
2019-04-07T20:32:56.741Z,99400.16
2019-04-07T20:36:19.395Z,99402.14
2019-04-07T20:39:32.556Z,99397.81
2019-04-07T20:42:50.518Z,99396.26
2019-04-07T20:46:04.952Z,99405.44
2019-04-07T20:49:35.673Z,99405.05
2019-04-07T20:53:22.240Z,99405.72
2019-04-07T20:56:42.047Z,99405.33
2019-04-07T21:00:05.201Z,99409.66
2019-04-07T21:03:27.674Z,99410.09
2019-04-07T21:06:54.015Z,99405.61
2019-04-07T21:10:18.976Z,99408.92
2019-04-07T21:13:43.049Z,99409.41
2019-04-07T21:17:07.357Z,99413.20
2019-04-07T21:20:28.916Z,99406.89
2019-04-07T21:23:53.917Z,99408.84
2019-04-07T21:27:18.503Z,99411.64
2019-04-07T21:30:31.912Z,99405.50
2019-04-07T21:33:56.003Z,99417.62
2019-04-07T21:37:23.037Z,99417.77
2019-04-07T21:40:55.717Z,99419.09
2019-04-07T21:44:20.668Z,99410.40
2019-04-07T21:47:46.286Z,99415.05
2019-04-07T21:51:04.541Z,99409.86
2019-04-07T21:54:14.805Z,99413.72
2019-04-07T21:57:54.623Z,99411.88
2019-04-07T22:01:16.884Z,99414.67
2019-04-07T22:04:45.804Z,99416.17
2019-04-07T22:08:08.046Z,99415.33
2019-04-07T22:11:09.234Z,99421.64
2019-04-07T22:14:14.673Z,99423.93
2019-04-07T22:17:18.117Z,99423.73
2019-04-07T22:20:21.738Z,99427.58
2019-04-07T22:23:25.208Z,99427.24
2019-04-07T22:26:29.569Z,99427.24
2019-04-07T22:29:34.965Z,99432.70
2019-04-07T22:32:38.518Z,99427.52
2019-04-07T22:35:44.021Z,99429.34
2019-04-07T22:38:47.259Z,99429.47
2019-04-07T22:41:50.824Z,99434.80
2019-04-07T22:44:55.091Z,99426.47
2019-04-07T22:47:59.585Z,99432.13
2019-04-07T22:51:09.488Z,99429.13
2019-04-07T22:54:10.266Z,99435.92
2019-04-07T22:57:15.405Z,99435.08
2019-04-07T23:00:22.042Z,99437.05
2019-04-07T23:03:27.523Z,99432.08
2019-04-07T23:06:32.947Z,99433.41
2019-04-07T23:09:37.003Z,99431.73
2019-04-07T23:12:40.961Z,99433.55
2019-04-07T23:15:47.056Z,99431.02
2019-04-07T23:18:50.782Z,99439.00
2019-04-07T23:21:54.252Z,99442.31
2019-04-07T23:24:59.384Z,99440.00
2019-04-07T23:28:02.906Z,99441.94
2019-04-07T23:31:06.396Z,99445.94
2019-04-07T23:34:10.920Z,99440.27
2019-04-07T23:37:15.454Z,99455.89
2019-04-07T23:40:18.947Z,99452.86
2019-04-07T23:43:22.455Z,99458.19
2019-04-07T23:46:27.322Z,99457.84
2019-04-07T23:49:31.289Z,99465.20
2019-04-07T23:52:35.623Z,99459.17
2019-04-07T23:55:40.330Z,99459.83
2019-04-07T23:58:43.841Z,99461.02
